sensor_id;sensor_type;location;lat;lon;timestamp;P1;durP1;ratioP1;P2;durP2;ratioP2
53903;SDS011;39812;52.430;16.936;2023-11-19T00:02:25;47.88;;;21.10;;
53903;SDS011;39812;52.430;16.936;2023-11-19T00:04:51;43.80;;;20.40;;
53903;SDS011;39812;52.430;16.936;2023-11-19T00:07:18;47.25;;;20.00;;
53903;SDS011;39812;52.430;16.936;2023-11-19T00:09:45;40.85;;;18.65;;
53903;SDS011;39812;52.430;16.936;2023-11-19T00:12:10;47.05;;;20.35;;
53903;SDS011;39812;52.430;16.936;2023-11-19T00:14:38;48.35;;;19.65;;
53903;SDS011;39812;52.430;16.936;2023-11-19T00:17:03;44.60;;;18.98;;
53903;SDS011;39812;52.430;16.936;2023-11-19T00:19:29;45.83;;;19.27;;
53903;SDS011;39812;52.430;16.936;2023-11-19T00:21:55;40.67;;;18.88;;
53903;SDS011;39812;52.430;16.936;2023-11-19T00:24:21;42.08;;;19.42;;
53903;SDS011;39812;52.430;16.936;2023-11-19T00:26:47;51.00;;;21.40;;
53903;SDS011;39812;52.430;16.936;2023-11-19T00:29:12;42.40;;;19.50;;
53903;SDS011;39812;52.430;16.936;2023-11-19T00:31:39;44.67;;;19.70;;
53903;SDS011;39812;52.430;16.936;2023-11-19T00:34:05;47.22;;;17.33;;
53903;SDS011;39812;52.430;16.936;2023-11-19T00:36:31;45.55;;;20.88;;
53903;SDS011;39812;52.430;16.936;2023-11-19T00:38:56;52.45;;;22.50;;
53903;SDS011;39812;52.430;16.936;2023-11-19T00:41:22;53.03;;;23.27;;
53903;SDS011;39812;52.430;16.936;2023-11-19T00:43:50;45.65;;;21.63;;
53903;SDS011;39812;52.430;16.936;2023-11-19T00:46:16;51.95;;;22.20;;
53903;SDS011;39812;52.430;16.936;2023-11-19T00:48:41;54.25;;;24.33;;
53903;SDS011;39812;52.430;16.936;2023-11-19T00:51:07;47.22;;;20.58;;
53903;SDS011;39812;52.430;16.936;2023-11-19T00:53:33;62.75;;;24.77;;
53903;SDS011;39812;52.430;16.936;2023-11-19T00:55:59;54.80;;;23.92;;
53903;SDS011;39812;52.430;16.936;2023-11-19T00:58:25;52.15;;;21.98;;
53903;SDS011;39812;52.430;16.936;2023-11-19T01:00:52;59.65;;;23.05;;
53903;SDS011;39812;52.430;16.936;2023-11-19T01:03:18;44.35;;;20.45;;
53903;SDS011;39812;52.430;16.936;2023-11-19T01:05:44;58.25;;;21.42;;
53903;SDS011;39812;52.430;16.936;2023-11-19T01:08:11;46.78;;;21.05;;
53903;SDS011;39812;52.430;16.936;2023-11-19T01:10:37;50.97;;;21.15;;
53903;SDS011;39812;52.430;16.936;2023-11-19T01:13:03;51.65;;;20.05;;
53903;SDS011;39812;52.430;16.936;2023-11-19T01:15:32;45.00;;;17.45;;
53903;SDS011;39812;52.430;16.936;2023-11-19T01:17:58;48.60;;;20.35;;
53903;SDS011;39812;52.430;16.936;2023-11-19T01:20:23;52.30;;;21.23;;
53903;SDS011;39812;52.430;16.936;2023-11-19T01:22:50;43.40;;;19.63;;
53903;SDS011;39812;52.430;16.936;2023-11-19T01:25:16;42.30;;;18.17;;
53903;SDS011;39812;52.430;16.936;2023-11-19T01:27:42;52.50;;;22.23;;
53903;SDS011;39812;52.430;16.936;2023-11-19T01:30:08;48.45;;;20.65;;
53903;SDS011;39812;52.430;16.936;2023-11-19T01:32:37;56.13;;;20.15;;
53903;SDS011;39812;52.430;16.936;2023-11-19T01:35:03;53.42;;;21.60;;
53903;SDS011;39812;52.430;16.936;2023-11-19T01:37:29;49.35;;;20.08;;
53903;SDS011;39812;52.430;16.936;2023-11-19T01:39:57;41.35;;;17.92;;
53903;SDS011;39812;52.430;16.936;2023-11-19T01:42:23;56.72;;;23.20;;
53903;SDS011;39812;52.430;16.936;2023-11-19T01:44:57;50.00;;;22.00;;
53903;SDS011;39812;52.430;16.936;2023-11-19T01:47:25;45.00;;;19.70;;
53903;SDS011;39812;52.430;16.936;2023-11-19T01:49:51;54.83;;;21.50;;
53903;SDS011;39812;52.430;16.936;2023-11-19T01:52:17;51.33;;;23.02;;
53903;SDS011;39812;52.430;16.936;2023-11-19T01:54:44;56.38;;;21.52;;
53903;SDS011;39812;52.430;16.936;2023-11-19T01:57:10;46.97;;;20.88;;
53903;SDS011;39812;52.430;16.936;2023-11-19T01:59:36;48.05;;;19.42;;
53903;SDS011;39812;52.430;16.936;2023-11-19T02:02:02;49.88;;;20.30;;
53903;SDS011;39812;52.430;16.936;2023-11-19T02:04:28;44.88;;;19.88;;
53903;SDS011;39812;52.430;16.936;2023-11-19T02:06:54;38.75;;;17.95;;
53903;SDS011;39812;52.430;16.936;2023-11-19T02:09:23;44.10;;;19.33;;
53903;SDS011;39812;52.430;16.936;2023-11-19T02:11:49;40.08;;;17.77;;
53903;SDS011;39812;52.430;16.936;2023-11-19T02:14:16;44.97;;;17.77;;
53903;SDS011;39812;52.430;16.936;2023-11-19T02:16:42;44.63;;;18.58;;
53903;SDS011;39812;52.430;16.936;2023-11-19T02:19:08;47.33;;;18.20;;
53903;SDS011;39812;52.430;16.936;2023-11-19T02:21:36;44.45;;;19.60;;
53903;SDS011;39812;52.430;16.936;2023-11-19T02:24:06;44.00;;;18.17;;
53903;SDS011;39812;52.430;16.936;2023-11-19T02:29:01;43.03;;;19.10;;
53903;SDS011;39812;52.430;16.936;2023-11-19T02:31:27;42.13;;;19.23;;
53903;SDS011;39812;52.430;16.936;2023-11-19T02:33:53;43.30;;;19.17;;
53903;SDS011;39812;52.430;16.936;2023-11-19T02:36:20;42.05;;;17.48;;
53903;SDS011;39812;52.430;16.936;2023-11-19T02:38:46;49.25;;;19.17;;
53903;SDS011;39812;52.430;16.936;2023-11-19T02:41:13;48.35;;;20.08;;
53903;SDS011;39812;52.430;16.936;2023-11-19T02:43:40;40.58;;;17.85;;
53903;SDS011;39812;52.430;16.936;2023-11-19T02:46:06;44.08;;;19.27;;
53903;SDS011;39812;52.430;16.936;2023-11-19T02:48:34;47.28;;;17.60;;
53903;SDS011;39812;52.430;16.936;2023-11-19T02:51:03;37.05;;;17.27;;
53903;SDS011;39812;52.430;16.936;2023-11-19T02:53:30;45.47;;;18.17;;
53903;SDS011;39812;52.430;16.936;2023-11-19T02:55:56;41.45;;;19.75;;
53903;SDS011;39812;52.430;16.936;2023-11-19T02:58:31;44.45;;;19.10;;
53903;SDS011;39812;52.430;16.936;2023-11-19T03:00:57;48.05;;;19.60;;
53903;SDS011;39812;52.430;16.936;2023-11-19T03:03:26;47.08;;;18.83;;
53903;SDS011;39812;52.430;16.936;2023-11-19T03:06:04;43.58;;;16.75;;
53903;SDS011;39812;52.430;16.936;2023-11-19T03:08:30;42.55;;;19.92;;
53903;SDS011;39812;52.430;16.936;2023-11-19T03:10:56;45.22;;;19.45;;
53903;SDS011;39812;52.430;16.936;2023-11-19T03:13:21;46.58;;;19.98;;
53903;SDS011;39812;52.430;16.936;2023-11-19T03:15:47;43.67;;;17.52;;
53903;SDS011;39812;52.430;16.936;2023-11-19T03:18:13;48.47;;;20.42;;
53903;SDS011;39812;52.430;16.936;2023-11-19T03:20:39;48.58;;;20.25;;
53903;SDS011;39812;52.430;16.936;2023-11-19T03:23:05;58.30;;;19.55;;
53903;SDS011;39812;52.430;16.936;2023-11-19T03:25:31;48.92;;;20.30;;
53903;SDS011;39812;52.430;16.936;2023-11-19T03:28:01;46.53;;;19.85;;
53903;SDS011;39812;52.430;16.936;2023-11-19T03:30:28;48.38;;;19.50;;
53903;SDS011;39812;52.430;16.936;2023-11-19T03:32:54;53.08;;;20.27;;
53903;SDS011;39812;52.430;16.936;2023-11-19T03:35:20;46.05;;;18.73;;
53903;SDS011;39812;52.430;16.936;2023-11-19T03:37:47;43.15;;;19.25;;
53903;SDS011;39812;52.430;16.936;2023-11-19T03:40:12;49.75;;;20.77;;
53903;SDS011;39812;52.430;16.936;2023-11-19T03:42:38;38.75;;;18.15;;
53903;SDS011;39812;52.430;16.936;2023-11-19T03:45:06;46.97;;;19.92;;
53903;SDS011;39812;52.430;16.936;2023-11-19T03:47:35;49.50;;;20.20;;
53903;SDS011;39812;52.430;16.936;2023-11-19T03:50:02;42.67;;;20.63;;
53903;SDS011;39812;52.430;16.936;2023-11-19T03:52:28;41.72;;;18.58;;
53903;SDS011;39812;52.430;16.936;2023-11-19T03:54:54;42.08;;;17.80;;
53903;SDS011;39812;52.430;16.936;2023-11-19T03:57:22;51.22;;;19.52;;
53903;SDS011;39812;52.430;16.936;2023-11-19T03:59:48;49.83;;;19.77;;
53903;SDS011;39812;52.430;16.936;2023-11-19T04:02:14;48.92;;;19.33;;
53903;SDS011;39812;52.430;16.936;2023-11-19T04:04:40;42.60;;;18.50;;
53903;SDS011;39812;52.430;16.936;2023-11-19T04:07:06;41.90;;;17.67;;
53903;SDS011;39812;52.430;16.936;2023-11-19T04:09:32;43.70;;;18.20;;
53903;SDS011;39812;52.430;16.936;2023-11-19T04:11:58;49.65;;;18.83;;
53903;SDS011;39812;52.430;16.936;2023-11-19T04:14:25;43.42;;;19.15;;
53903;SDS011;39812;52.430;16.936;2023-11-19T04:16:51;44.28;;;17.40;;
53903;SDS011;39812;52.430;16.936;2023-11-19T04:19:17;44.35;;;19.48;;
53903;SDS011;39812;52.430;16.936;2023-11-19T04:21:43;41.85;;;19.83;;
53903;SDS011;39812;52.430;16.936;2023-11-19T04:24:09;44.60;;;18.45;;
53903;SDS011;39812;52.430;16.936;2023-11-19T04:26:41;50.63;;;19.00;;
53903;SDS011;39812;52.430;16.936;2023-11-19T04:29:09;39.15;;;16.08;;
53903;SDS011;39812;52.430;16.936;2023-11-19T04:31:36;51.65;;;22.48;;
53903;SDS011;39812;52.430;16.936;2023-11-19T04:34:02;49.25;;;18.48;;
53903;SDS011;39812;52.430;16.936;2023-11-19T04:36:28;41.00;;;17.75;;
53903;SDS011;39812;52.430;16.936;2023-11-19T04:38:54;37.80;;;18.65;;
53903;SDS011;39812;52.430;16.936;2023-11-19T04:41:20;45.28;;;18.98;;
53903;SDS011;39812;52.430;16.936;2023-11-19T04:43:46;52.92;;;19.02;;
53903;SDS011;39812;52.430;16.936;2023-11-19T04:46:12;47.20;;;20.02;;
53903;SDS011;39812;52.430;16.936;2023-11-19T04:48:38;38.45;;;16.08;;
53903;SDS011;39812;52.430;16.936;2023-11-19T04:51:07;38.28;;;16.65;;
53903;SDS011;39812;52.430;16.936;2023-11-19T04:53:34;45.47;;;18.00;;
53903;SDS011;39812;52.430;16.936;2023-11-19T04:56:00;35.33;;;17.50;;
53903;SDS011;39812;52.430;16.936;2023-11-19T04:58:25;40.08;;;17.67;;
53903;SDS011;39812;52.430;16.936;2023-11-19T05:00:51;37.47;;;17.27;;
53903;SDS011;39812;52.430;16.936;2023-11-19T05:03:17;40.65;;;18.08;;
53903;SDS011;39812;52.430;16.936;2023-11-19T05:05:44;48.13;;;18.17;;
53903;SDS011;39812;52.430;16.936;2023-11-19T05:08:10;38.03;;;16.80;;
53903;SDS011;39812;52.430;16.936;2023-11-19T05:10:36;40.10;;;16.92;;
53903;SDS011;39812;52.430;16.936;2023-11-19T05:13:02;39.42;;;17.42;;
53903;SDS011;39812;52.430;16.936;2023-11-19T05:15:28;47.17;;;17.95;;
53903;SDS011;39812;52.430;16.936;2023-11-19T05:17:53;38.92;;;16.95;;
53903;SDS011;39812;52.430;16.936;2023-11-19T05:20:19;41.35;;;17.55;;
53903;SDS011;39812;52.430;16.936;2023-11-19T05:22:45;42.42;;;16.42;;
53903;SDS011;39812;52.430;16.936;2023-11-19T05:25:11;34.92;;;16.33;;
53903;SDS011;39812;52.430;16.936;2023-11-19T05:27:36;42.35;;;17.33;;
53903;SDS011;39812;52.430;16.936;2023-11-19T05:30:05;38.78;;;15.95;;
53903;SDS011;39812;52.430;16.936;2023-11-19T05:32:35;48.55;;;17.05;;
53903;SDS011;39812;52.430;16.936;2023-11-19T05:35:01;35.45;;;16.92;;
53903;SDS011;39812;52.430;16.936;2023-11-19T05:37:27;42.35;;;18.40;;
53903;SDS011;39812;52.430;16.936;2023-11-19T05:39:53;40.97;;;17.35;;
53903;SDS011;39812;52.430;16.936;2023-11-19T05:42:19;32.97;;;14.45;;
53903;SDS011;39812;52.430;16.936;2023-11-19T05:44:45;36.58;;;14.80;;
53903;SDS011;39812;52.430;16.936;2023-11-19T05:47:11;43.55;;;16.10;;
53903;SDS011;39812;52.430;16.936;2023-11-19T05:49:37;33.13;;;15.13;;
53903;SDS011;39812;52.430;16.936;2023-11-19T05:52:03;35.15;;;15.70;;
53903;SDS011;39812;52.430;16.936;2023-11-19T05:54:32;40.97;;;15.80;;
53903;SDS011;39812;52.430;16.936;2023-11-19T05:57:03;30.92;;;15.20;;
53903;SDS011;39812;52.430;16.936;2023-11-19T05:59:34;34.53;;;15.40;;
53903;SDS011;39812;52.430;16.936;2023-11-19T06:02:01;31.20;;;14.65;;
53903;SDS011;39812;52.430;16.936;2023-11-19T06:04:27;42.55;;;15.32;;
53903;SDS011;39812;52.430;16.936;2023-11-19T06:06:53;35.90;;;14.95;;
53903;SDS011;39812;52.430;16.936;2023-11-19T06:09:19;31.25;;;14.50;;
53903;SDS011;39812;52.430;16.936;2023-11-19T06:11:46;31.20;;;14.63;;
53903;SDS011;39812;52.430;16.936;2023-11-19T06:14:12;32.17;;;16.45;;
53903;SDS011;39812;52.430;16.936;2023-11-19T06:16:37;44.28;;;17.15;;
53903;SDS011;39812;52.430;16.936;2023-11-19T06:19:05;33.50;;;14.95;;
53903;SDS011;39812;52.430;16.936;2023-11-19T06:21:30;32.80;;;15.43;;
53903;SDS011;39812;52.430;16.936;2023-11-19T06:23:56;38.72;;;15.20;;
53903;SDS011;39812;52.430;16.936;2023-11-19T06:26:23;36.33;;;16.08;;
53903;SDS011;39812;52.430;16.936;2023-11-19T06:28:48;38.60;;;16.33;;
53903;SDS011;39812;52.430;16.936;2023-11-19T06:31:14;41.60;;;15.35;;
53903;SDS011;39812;52.430;16.936;2023-11-19T06:33:41;41.08;;;16.55;;
53903;SDS011;39812;52.430;16.936;2023-11-19T06:36:07;32.22;;;14.52;;
53903;SDS011;39812;52.430;16.936;2023-11-19T06:38:34;33.92;;;14.95;;
53903;SDS011;39812;52.430;16.936;2023-11-19T06:41:00;38.85;;;17.27;;
53903;SDS011;39812;52.430;16.936;2023-11-19T06:43:26;31.42;;;13.82;;
53903;SDS011;39812;52.430;16.936;2023-11-19T06:45:53;31.80;;;16.90;;
53903;SDS011;39812;52.430;16.936;2023-11-19T06:48:19;35.17;;;16.77;;
53903;SDS011;39812;52.430;16.936;2023-11-19T06:50:45;34.88;;;14.77;;
53903;SDS011;39812;52.430;16.936;2023-11-19T06:53:11;41.65;;;16.88;;
53903;SDS011;39812;52.430;16.936;2023-11-19T06:55:37;40.40;;;16.73;;
53903;SDS011;39812;52.430;16.936;2023-11-19T06:58:03;38.70;;;15.77;;
53903;SDS011;39812;52.430;16.936;2023-11-19T07:00:29;33.92;;;15.43;;
53903;SDS011;39812;52.430;16.936;2023-11-19T07:02:57;34.97;;;16.48;;
53903;SDS011;39812;52.430;16.936;2023-11-19T07:05:23;35.17;;;16.13;;
53903;SDS011;39812;52.430;16.936;2023-11-19T07:07:49;35.72;;;15.75;;
53903;SDS011;39812;52.430;16.936;2023-11-19T07:10:15;28.58;;;14.95;;
53903;SDS011;39812;52.430;16.936;2023-11-19T07:12:41;37.70;;;14.48;;
53903;SDS011;39812;52.430;16.936;2023-11-19T07:15:07;29.00;;;13.80;;
53903;SDS011;39812;52.430;16.936;2023-11-19T07:17:34;36.42;;;15.75;;
53903;SDS011;39812;52.430;16.936;2023-11-19T07:20:00;34.38;;;14.02;;
53903;SDS011;39812;52.430;16.936;2023-11-19T07:22:26;34.15;;;15.35;;
53903;SDS011;39812;52.430;16.936;2023-11-19T07:24:54;35.05;;;14.00;;
53903;SDS011;39812;52.430;16.936;2023-11-19T07:27:20;33.70;;;13.48;;
53903;SDS011;39812;52.430;16.936;2023-11-19T07:29:45;34.83;;;14.40;;
53903;SDS011;39812;52.430;16.936;2023-11-19T07:32:11;36.28;;;15.00;;
53903;SDS011;39812;52.430;16.936;2023-11-19T07:34:38;24.88;;;11.45;;
53903;SDS011;39812;52.430;16.936;2023-11-19T07:37:04;30.90;;;12.60;;
53903;SDS011;39812;52.430;16.936;2023-11-19T07:39:30;24.20;;;11.88;;
53903;SDS011;39812;52.430;16.936;2023-11-19T07:41:56;32.70;;;13.45;;
53903;SDS011;39812;52.430;16.936;2023-11-19T07:44:22;25.85;;;12.38;;
53903;SDS011;39812;52.430;16.936;2023-11-19T07:46:48;27.38;;;11.48;;
53903;SDS011;39812;52.430;16.936;2023-11-19T07:49:14;24.58;;;11.20;;
53903;SDS011;39812;52.430;16.936;2023-11-19T07:51:39;25.05;;;11.88;;
53903;SDS011;39812;52.430;16.936;2023-11-19T07:54:06;28.42;;;13.13;;
53903;SDS011;39812;52.430;16.936;2023-11-19T07:56:33;27.52;;;12.07;;
53903;SDS011;39812;52.430;16.936;2023-11-19T07:59:02;25.88;;;12.52;;
53903;SDS011;39812;52.430;16.936;2023-11-19T08:01:28;29.45;;;12.25;;
53903;SDS011;39812;52.430;16.936;2023-11-19T08:03:53;31.45;;;13.15;;
53903;SDS011;39812;52.430;16.936;2023-11-19T08:06:19;24.98;;;11.27;;
53903;SDS011;39812;52.430;16.936;2023-11-19T08:08:45;31.00;;;12.43;;
53903;SDS011;39812;52.430;16.936;2023-11-19T08:11:12;28.08;;;11.38;;
53903;SDS011;39812;52.430;16.936;2023-11-19T08:13:38;28.35;;;12.15;;
53903;SDS011;39812;52.430;16.936;2023-11-19T08:16:04;26.00;;;12.30;;
53903;SDS011;39812;52.430;16.936;2023-11-19T08:18:30;26.45;;;12.60;;
53903;SDS011;39812;52.430;16.936;2023-11-19T08:20:57;28.52;;;11.68;;
53903;SDS011;39812;52.430;16.936;2023-11-19T08:23:24;24.80;;;11.18;;
53903;SDS011;39812;52.430;16.936;2023-11-19T08:25:50;22.77;;;11.07;;
53903;SDS011;39812;52.430;16.936;2023-11-19T08:28:17;24.55;;;11.43;;
53903;SDS011;39812;52.430;16.936;2023-11-19T08:30:43;24.20;;;11.93;;
53903;SDS011;39812;52.430;16.936;2023-11-19T08:33:09;25.92;;;11.50;;
53903;SDS011;39812;52.430;16.936;2023-11-19T08:35:36;27.98;;;10.98;;
53903;SDS011;39812;52.430;16.936;2023-11-19T08:38:02;27.23;;;13.48;;
53903;SDS011;39812;52.430;16.936;2023-11-19T08:40:28;30.05;;;10.52;;
53903;SDS011;39812;52.430;16.936;2023-11-19T08:42:54;23.98;;;10.93;;
53903;SDS011;39812;52.430;16.936;2023-11-19T08:45:21;21.40;;;9.88;;
53903;SDS011;39812;52.430;16.936;2023-11-19T08:47:47;24.10;;;10.80;;
53903;SDS011;39812;52.430;16.936;2023-11-19T08:50:12;28.38;;;11.32;;
53903;SDS011;39812;52.430;16.936;2023-11-19T08:52:38;23.33;;;10.88;;
53903;SDS011;39812;52.430;16.936;2023-11-19T08:55:04;22.77;;;10.25;;
53903;SDS011;39812;52.430;16.936;2023-11-19T08:57:30;24.98;;;9.57;;
53903;SDS011;39812;52.430;16.936;2023-11-19T08:59:57;22.17;;;10.88;;
53903;SDS011;39812;52.430;16.936;2023-11-19T09:02:23;22.00;;;11.43;;
53903;SDS011;39812;52.430;16.936;2023-11-19T09:04:49;28.83;;;11.10;;
53903;SDS011;39812;52.430;16.936;2023-11-19T09:07:15;24.48;;;11.52;;
53903;SDS011;39812;52.430;16.936;2023-11-19T09:09:41;23.40;;;10.20;;
53903;SDS011;39812;52.430;16.936;2023-11-19T09:12:07;23.52;;;11.10;;
53903;SDS011;39812;52.430;16.936;2023-11-19T09:14:33;22.25;;;10.23;;
53903;SDS011;39812;52.430;16.936;2023-11-19T09:16:59;22.08;;;10.02;;
53903;SDS011;39812;52.430;16.936;2023-11-19T09:19:25;30.48;;;11.95;;
53903;SDS011;39812;52.430;16.936;2023-11-19T09:21:51;25.27;;;11.05;;
53903;SDS011;39812;52.430;16.936;2023-11-19T09:24:18;26.48;;;11.05;;
53903;SDS011;39812;52.430;16.936;2023-11-19T09:26:43;29.67;;;11.50;;
53903;SDS011;39812;52.430;16.936;2023-11-19T09:29:10;23.10;;;10.98;;
53903;SDS011;39812;52.430;16.936;2023-11-19T09:31:37;24.80;;;11.05;;
53903;SDS011;39812;52.430;16.936;2023-11-19T09:34:03;25.02;;;11.77;;
53903;SDS011;39812;52.430;16.936;2023-11-19T09:36:29;26.77;;;11.55;;
53903;SDS011;39812;52.430;16.936;2023-11-19T09:38:55;25.58;;;11.07;;
53903;SDS011;39812;52.430;16.936;2023-11-19T09:41:21;28.80;;;12.18;;
53903;SDS011;39812;52.430;16.936;2023-11-19T09:43:48;24.90;;;11.00;;
53903;SDS011;39812;52.430;16.936;2023-11-19T09:46:14;28.27;;;13.43;;
53903;SDS011;39812;52.430;16.936;2023-11-19T09:48:41;30.73;;;13.45;;
53903;SDS011;39812;52.430;16.936;2023-11-19T09:51:10;25.95;;;10.85;;
53903;SDS011;39812;52.430;16.936;2023-11-19T09:53:36;33.47;;;12.82;;
53903;SDS011;39812;52.430;16.936;2023-11-19T09:56:03;34.05;;;11.18;;
53903;SDS011;39812;52.430;16.936;2023-11-19T09:58:29;26.20;;;11.68;;
53903;SDS011;39812;52.430;16.936;2023-11-19T10:00:56;29.00;;;13.82;;
53903;SDS011;39812;52.430;16.936;2023-11-19T10:03:24;29.17;;;11.68;;
53903;SDS011;39812;52.430;16.936;2023-11-19T10:05:51;30.20;;;12.50;;
53903;SDS011;39812;52.430;16.936;2023-11-19T10:08:17;24.75;;;11.45;;
53903;SDS011;39812;52.430;16.936;2023-11-19T10:10:43;30.75;;;11.50;;
53903;SDS011;39812;52.430;16.936;2023-11-19T10:13:09;30.17;;;13.02;;
53903;SDS011;39812;52.430;16.936;2023-11-19T10:15:36;22.67;;;11.60;;
53903;SDS011;39812;52.430;16.936;2023-11-19T10:18:02;27.33;;;12.20;;
53903;SDS011;39812;52.430;16.936;2023-11-19T10:20:34;21.83;;;9.40;;
53903;SDS011;39812;52.430;16.936;2023-11-19T10:23:01;31.30;;;13.55;;
53903;SDS011;39812;52.430;16.936;2023-11-19T10:25:27;27.27;;;11.88;;
53903;SDS011;39812;52.430;16.936;2023-11-19T10:27:54;30.00;;;11.35;;
53903;SDS011;39812;52.430;16.936;2023-11-19T10:30:24;29.50;;;11.40;;
53903;SDS011;39812;52.430;16.936;2023-11-19T10:33:07;26.67;;;12.32;;
53903;SDS011;39812;52.430;16.936;2023-11-19T10:35:34;21.55;;;11.60;;
53903;SDS011;39812;52.430;16.936;2023-11-19T10:38:19;21.85;;;11.23;;
53903;SDS011;39812;52.430;16.936;2023-11-19T10:40:49;27.77;;;10.50;;
53903;SDS011;39812;52.430;16.936;2023-11-19T10:43:16;25.10;;;10.50;;
53903;SDS011;39812;52.430;16.936;2023-11-19T10:45:42;26.85;;;10.45;;
53903;SDS011;39812;52.430;16.936;2023-11-19T10:48:08;25.45;;;10.82;;
53903;SDS011;39812;52.430;16.936;2023-11-19T10:50:35;15.60;;;8.82;;
53903;SDS011;39812;52.430;16.936;2023-11-19T10:53:01;22.45;;;11.02;;
53903;SDS011;39812;52.430;16.936;2023-11-19T10:55:31;23.17;;;10.10;;
53903;SDS011;39812;52.430;16.936;2023-11-19T10:58:01;20.30;;;9.45;;
53903;SDS011;39812;52.430;16.936;2023-11-19T11:00:51;20.80;;;9.93;;
53903;SDS011;39812;52.430;16.936;2023-11-19T11:03:21;20.85;;;9.73;;
53903;SDS011;39812;52.430;16.936;2023-11-19T11:05:50;16.75;;;10.00;;
53903;SDS011;39812;52.430;16.936;2023-11-19T11:08:17;21.60;;;11.02;;
53903;SDS011;39812;52.430;16.936;2023-11-19T11:10:45;25.15;;;11.70;;
53903;SDS011;39812;52.430;16.936;2023-11-19T11:13:18;21.80;;;11.70;;
53903;SDS011;39812;52.430;16.936;2023-11-19T11:15:47;23.15;;;10.45;;
53903;SDS011;39812;52.430;16.936;2023-11-19T11:18:14;24.27;;;11.20;;
53903;SDS011;39812;52.430;16.936;2023-11-19T11:20:42;23.15;;;9.63;;
53903;SDS011;39812;52.430;16.936;2023-11-19T11:26:00;22.58;;;11.40;;
53903;SDS011;39812;52.430;16.936;2023-11-19T11:28:48;22.27;;;10.23;;
53903;SDS011;39812;52.430;16.936;2023-11-19T11:40:16;23.95;;;11.20;;
53903;SDS011;39812;52.430;16.936;2023-11-19T11:42:43;26.95;;;11.52;;
53903;SDS011;39812;52.430;16.936;2023-11-19T11:45:13;24.15;;;10.90;;
53903;SDS011;39812;52.430;16.936;2023-11-19T11:50:11;28.05;;;11.48;;
53903;SDS011;39812;52.430;16.936;2023-11-19T11:55:27;34.05;;;13.57;;
53903;SDS011;39812;52.430;16.936;2023-11-19T11:57:53;27.95;;;13.50;;
53903;SDS011;39812;52.430;16.936;2023-11-19T12:00:22;27.40;;;13.15;;
53903;SDS011;39812;52.430;16.936;2023-11-19T12:02:54;31.63;;;13.45;;
53903;SDS011;39812;52.430;16.936;2023-11-19T12:05:26;28.75;;;11.93;;
53903;SDS011;39812;52.430;16.936;2023-11-19T12:07:56;29.00;;;11.98;;
53903;SDS011;39812;52.430;16.936;2023-11-19T12:10:25;32.92;;;14.55;;
53903;SDS011;39812;52.430;16.936;2023-11-19T12:12:57;36.58;;;14.38;;
53903;SDS011;39812;52.430;16.936;2023-11-19T12:15:23;33.00;;;14.98;;
53903;SDS011;39812;52.430;16.936;2023-11-19T12:17:51;30.20;;;14.02;;
53903;SDS011;39812;52.430;16.936;2023-11-19T12:20:18;29.88;;;13.32;;
53903;SDS011;39812;52.430;16.936;2023-11-19T12:22:46;34.58;;;14.60;;
53903;SDS011;39812;52.430;16.936;2023-11-19T12:25:14;38.63;;;13.80;;
53903;SDS011;39812;52.430;16.936;2023-11-19T12:27:45;31.48;;;14.23;;
53903;SDS011;39812;52.430;16.936;2023-11-19T12:30:14;36.38;;;15.43;;
53903;SDS011;39812;52.430;16.936;2023-11-19T12:32:51;35.00;;;15.35;;
53903;SDS011;39812;52.430;16.936;2023-11-19T12:35:20;38.67;;;14.55;;
53903;SDS011;39812;52.430;16.936;2023-11-19T12:37:47;35.47;;;16.08;;
53903;SDS011;39812;52.430;16.936;2023-11-19T12:40:18;32.10;;;14.80;;
53903;SDS011;39812;52.430;16.936;2023-11-19T12:42:53;32.10;;;12.85;;
53903;SDS011;39812;52.430;16.936;2023-11-19T12:45:19;34.17;;;15.02;;
53903;SDS011;39812;52.430;16.936;2023-11-19T12:47:46;39.45;;;15.98;;
53903;SDS011;39812;52.430;16.936;2023-11-19T12:50:14;41.92;;;16.00;;
53903;SDS011;39812;52.430;16.936;2023-11-19T12:52:43;31.00;;;14.65;;
53903;SDS011;39812;52.430;16.936;2023-11-19T12:55:28;34.55;;;14.45;;
53903;SDS011;39812;52.430;16.936;2023-11-19T12:57:54;33.75;;;13.23;;
53903;SDS011;39812;52.430;16.936;2023-11-19T13:00:23;32.55;;;14.40;;
53903;SDS011;39812;52.430;16.936;2023-11-19T13:05:30;39.35;;;14.43;;
53903;SDS011;39812;52.430;16.936;2023-11-19T13:08:07;34.88;;;14.05;;
53903;SDS011;39812;52.430;16.936;2023-11-19T13:13:14;36.60;;;14.75;;
53903;SDS011;39812;52.430;16.936;2023-11-19T13:15:39;33.58;;;13.88;;
53903;SDS011;39812;52.430;16.936;2023-11-19T13:18:05;36.88;;;15.63;;
53903;SDS011;39812;52.430;16.936;2023-11-19T13:20:31;39.22;;;15.30;;
53903;SDS011;39812;52.430;16.936;2023-11-19T13:22:58;36.45;;;15.45;;
53903;SDS011;39812;52.430;16.936;2023-11-19T13:25:24;34.30;;;13.88;;
53903;SDS011;39812;52.430;16.936;2023-11-19T13:27:50;37.33;;;15.02;;
53903;SDS011;39812;52.430;16.936;2023-11-19T13:30:16;35.30;;;14.75;;
53903;SDS011;39812;52.430;16.936;2023-11-19T13:32:42;37.90;;;15.00;;
53903;SDS011;39812;52.430;16.936;2023-11-19T13:35:09;31.40;;;13.82;;
53903;SDS011;39812;52.430;16.936;2023-11-19T13:37:35;34.10;;;13.82;;
53903;SDS011;39812;52.430;16.936;2023-11-19T13:40:01;31.15;;;14.65;;
53903;SDS011;39812;52.430;16.936;2023-11-19T13:42:27;38.40;;;15.40;;
53903;SDS011;39812;52.430;16.936;2023-11-19T13:44:53;32.15;;;13.32;;
53903;SDS011;39812;52.430;16.936;2023-11-19T13:47:20;39.33;;;16.10;;
53903;SDS011;39812;52.430;16.936;2023-11-19T13:49:46;32.88;;;15.45;;
53903;SDS011;39812;52.430;16.936;2023-11-19T13:52:12;38.75;;;15.40;;
53903;SDS011;39812;52.430;16.936;2023-11-19T13:54:37;35.50;;;15.60;;
53903;SDS011;39812;52.430;16.936;2023-11-19T13:57:03;36.20;;;15.30;;
53903;SDS011;39812;52.430;16.936;2023-11-19T13:59:30;32.63;;;14.02;;
53903;SDS011;39812;52.430;16.936;2023-11-19T14:01:57;37.92;;;14.82;;
53903;SDS011;39812;52.430;16.936;2023-11-19T14:04:23;34.92;;;15.13;;
53903;SDS011;39812;52.430;16.936;2023-11-19T14:06:49;35.47;;;15.38;;
53903;SDS011;39812;52.430;16.936;2023-11-19T14:09:15;34.03;;;14.02;;
53903;SDS011;39812;52.430;16.936;2023-11-19T14:11:41;35.08;;;13.80;;
53903;SDS011;39812;52.430;16.936;2023-11-19T14:14:07;38.05;;;15.18;;
53903;SDS011;39812;52.430;16.936;2023-11-19T14:16:33;36.97;;;14.95;;
53903;SDS011;39812;52.430;16.936;2023-11-19T14:18:59;36.83;;;14.65;;
53903;SDS011;39812;52.430;16.936;2023-11-19T14:21:25;33.03;;;14.75;;
53903;SDS011;39812;52.430;16.936;2023-11-19T14:23:52;35.15;;;14.45;;
53903;SDS011;39812;52.430;16.936;2023-11-19T14:26:18;37.60;;;15.18;;
53903;SDS011;39812;52.430;16.936;2023-11-19T14:28:43;39.75;;;17.05;;
53903;SDS011;39812;52.430;16.936;2023-11-19T14:31:09;36.50;;;14.32;;
53903;SDS011;39812;52.430;16.936;2023-11-19T14:33:35;37.08;;;15.18;;